sensor_id;sensor_type;location;lat;lon;timestamp;pressure;altitude;pressure_sealevel;temperature;humidity
10464;BME280;5279;42.048;24.638;2023-04-15T00:01:37;96679.09;;;12.99;100.00
10464;BME280;5279;42.048;24.638;2023-04-15T00:04:06;96671.00;;;12.92;100.00
10464;BME280;5279;42.048;24.638;2023-04-15T00:06:35;96666.03;;;12.89;100.00
10464;BME280;5279;42.048;24.638;2023-04-15T00:09:04;96664.78;;;12.85;100.00
10464;BME280;5279;42.048;24.638;2023-04-15T00:11:32;96676.50;;;12.76;100.00
10464;BME280;5279;42.048;24.638;2023-04-15T00:13:59;96673.72;;;12.55;100.00
10464;BME280;5279;42.048;24.638;2023-04-15T00:16:27;96670.75;;;12.50;100.00
10464;BME280;5279;42.048;24.638;2023-04-15T00:18:54;96672.25;;;12.30;100.00
10464;BME280;5279;42.048;24.638;2023-04-15T00:21:23;96672.88;;;12.32;100.00
10464;BME280;5279;42.048;24.638;2023-04-15T00:23:52;96685.75;;;12.43;100.00
10464;BME280;5279;42.048;24.638;2023-04-15T00:26:19;96672.53;;;12.35;100.00
10464;BME280;5279;42.048;24.638;2023-04-15T00:28:47;96677.47;;;12.38;100.00
10464;BME280;5279;42.048;24.638;2023-04-15T00:31:15;96673.59;;;12.48;100.00
10464;BME280;5279;42.048;24.638;2023-04-15T00:33:42;96671.69;;;12.57;100.00
10464;BME280;5279;42.048;24.638;2023-04-15T00:36:11;96675.91;;;12.66;100.00
10464;BME280;5279;42.048;24.638;2023-04-15T00:38:41;96680.75;;;12.63;100.00
10464;BME280;5279;42.048;24.638;2023-04-15T00:41:09;96687.13;;;12.76;100.00
10464;BME280;5279;42.048;24.638;2023-04-15T00:43:36;96687.50;;;12.73;100.00
10464;BME280;5279;42.048;24.638;2023-04-15T00:46:05;96691.31;;;12.71;100.00
10464;BME280;5279;42.048;24.638;2023-04-15T00:48:36;96682.31;;;12.57;100.00
10464;BME280;5279;42.048;24.638;2023-04-15T00:51:04;96692.19;;;12.48;100.00
10464;BME280;5279;42.048;24.638;2023-04-15T00:53:32;96684.56;;;12.45;100.00
10464;BME280;5279;42.048;24.638;2023-04-15T00:56:03;96688.59;;;12.41;100.00
10464;BME280;5279;42.048;24.638;2023-04-15T00:58:31;96695.78;;;12.33;100.00
10464;BME280;5279;42.048;24.638;2023-04-15T01:00:59;96680.56;;;12.27;100.00
10464;BME280;5279;42.048;24.638;2023-04-15T01:03:27;96671.13;;;12.24;100.00
10464;BME280;5279;42.048;24.638;2023-04-15T01:05:55;96675.25;;;12.27;100.00
10464;BME280;5279;42.048;24.638;2023-04-15T01:08:26;96664.34;;;12.22;100.00
10464;BME280;5279;42.048;24.638;2023-04-15T01:10:54;96683.88;;;12.06;100.00
10464;BME280;5279;42.048;24.638;2023-04-15T01:13:24;96701.41;;;11.84;100.00
10464;BME280;5279;42.048;24.638;2023-04-15T01:15:52;96697.50;;;11.72;100.00
10464;BME280;5279;42.048;24.638;2023-04-15T01:18:20;96691.84;;;11.75;100.00
10464;BME280;5279;42.048;24.638;2023-04-15T01:20:49;96689.56;;;11.64;100.00
10464;BME280;5279;42.048;24.638;2023-04-15T01:23:17;96676.72;;;11.37;100.00
10464;BME280;5279;42.048;24.638;2023-04-15T01:25:46;96673.44;;;11.35;100.00
10464;BME280;5279;42.048;24.638;2023-04-15T01:28:14;96683.34;;;11.41;100.00
10464;BME280;5279;42.048;24.638;2023-04-15T01:30:42;96668.13;;;11.35;100.00
10464;BME280;5279;42.048;24.638;2023-04-15T01:33:10;96667.72;;;11.46;100.00
10464;BME280;5279;42.048;24.638;2023-04-15T01:35:37;96665.16;;;11.30;100.00
10464;BME280;5279;42.048;24.638;2023-04-15T01:38:05;96670.59;;;10.89;100.00
10464;BME280;5279;42.048;24.638;2023-04-15T01:40:33;96685.84;;;10.87;100.00
10464;BME280;5279;42.048;24.638;2023-04-15T01:43:02;96687.66;;;10.87;100.00
10464;BME280;5279;42.048;24.638;2023-04-15T01:45:30;96698.75;;;10.90;100.00
10464;BME280;5279;42.048;24.638;2023-04-15T01:47:57;96710.19;;;10.91;100.00
10464;BME280;5279;42.048;24.638;2023-04-15T01:50:25;96704.06;;;10.82;100.00
10464;BME280;5279;42.048;24.638;2023-04-15T01:52:53;96706.72;;;10.90;100.00
10464;BME280;5279;42.048;24.638;2023-04-15T01:55:21;96712.97;;;10.97;100.00
10464;BME280;5279;42.048;24.638;2023-04-15T01:57:49;96712.69;;;10.84;100.00
10464;BME280;5279;42.048;24.638;2023-04-15T02:00:18;96728.25;;;10.71;100.00
10464;BME280;5279;42.048;24.638;2023-04-15T02:02:46;96745.81;;;10.56;100.00
10464;BME280;5279;42.048;24.638;2023-04-15T02:05:14;96735.88;;;10.50;100.00
10464;BME280;5279;42.048;24.638;2023-04-15T02:07:41;96731.91;;;10.54;100.00
10464;BME280;5279;42.048;24.638;2023-04-15T02:10:09;96720.97;;;10.57;100.00
10464;BME280;5279;42.048;24.638;2023-04-15T02:12:38;96721.63;;;10.67;100.00
10464;BME280;5279;42.048;24.638;2023-04-15T02:15:06;96715.31;;;10.76;100.00
10464;BME280;5279;42.048;24.638;2023-04-15T02:17:36;96704.06;;;10.82;100.00
10464;BME280;5279;42.048;24.638;2023-04-15T02:20:04;96704.72;;;10.76;100.00
10464;BME280;5279;42.048;24.638;2023-04-15T02:22:31;96722.28;;;10.77;100.00
10464;BME280;5279;42.048;24.638;2023-04-15T02:24:58;96722.59;;;10.82;100.00
10464;BME280;5279;42.048;24.638;2023-04-15T02:27:26;96726.59;;;10.70;100.00
10464;BME280;5279;42.048;24.638;2023-04-15T02:29:55;96720.31;;;10.63;100.00
10464;BME280;5279;42.048;24.638;2023-04-15T02:32:22;96719.16;;;10.50;100.00
10464;BME280;5279;42.048;24.638;2023-04-15T02:34:50;96726.78;;;10.69;100.00
10464;BME280;5279;42.048;24.638;2023-04-15T02:37:18;96732.56;;;10.80;100.00
10464;BME280;5279;42.048;24.638;2023-04-15T02:39:46;96726.75;;;10.93;100.00
10464;BME280;5279;42.048;24.638;2023-04-15T02:42:14;96717.94;;;11.01;100.00
10464;BME280;5279;42.048;24.638;2023-04-15T02:44:41;96724.91;;;11.02;100.00
10464;BME280;5279;42.048;24.638;2023-04-15T02:47:10;96719.13;;;10.90;100.00
10464;BME280;5279;42.048;24.638;2023-04-15T02:49:37;96721.25;;;10.94;100.00
10464;BME280;5279;42.048;24.638;2023-04-15T02:52:07;96722.09;;;11.03;100.00
10464;BME280;5279;42.048;24.638;2023-04-15T02:54:35;96726.75;;;10.77;100.00
10464;BME280;5279;42.048;24.638;2023-04-15T02:57:03;96733.22;;;10.74;100.00
10464;BME280;5279;42.048;24.638;2023-04-15T02:59:31;96731.91;;;10.62;100.00
10464;BME280;5279;42.048;24.638;2023-04-15T03:01:58;96716.00;;;10.46;100.00
10464;BME280;5279;42.048;24.638;2023-04-15T03:04:25;96735.38;;;10.63;100.00
10464;BME280;5279;42.048;24.638;2023-04-15T03:06:54;96721.94;;;10.64;100.00
10464;BME280;5279;42.048;24.638;2023-04-15T03:09:23;96728.41;;;10.78;100.00
10464;BME280;5279;42.048;24.638;2023-04-15T03:11:51;96723.13;;;10.78;100.00
10464;BME280;5279;42.048;24.638;2023-04-15T03:14:19;96726.91;;;10.91;100.00
10464;BME280;5279;42.048;24.638;2023-04-15T03:16:47;96726.56;;;11.03;100.00
10464;BME280;5279;42.048;24.638;2023-04-15T03:19:16;96735.81;;;11.15;100.00
10464;BME280;5279;42.048;24.638;2023-04-15T03:21:44;96745.44;;;11.08;100.00
10464;BME280;5279;42.048;24.638;2023-04-15T03:24:11;96739.13;;;11.01;100.00
10464;BME280;5279;42.048;24.638;2023-04-15T03:26:41;96740.78;;;11.10;100.00
10464;BME280;5279;42.048;24.638;2023-04-15T03:29:08;96756.00;;;11.16;100.00
10464;BME280;5279;42.048;24.638;2023-04-15T03:31:36;96783.69;;;11.21;100.00
10464;BME280;5279;42.048;24.638;2023-04-15T03:34:03;96758.81;;;11.22;100.00
10464;BME280;5279;42.048;24.638;2023-04-15T03:36:31;96756.00;;;11.24;100.00
10464;BME280;5279;42.048;24.638;2023-04-15T03:38:59;96750.38;;;11.27;100.00
10464;BME280;5279;42.048;24.638;2023-04-15T03:41:26;96758.78;;;11.38;100.00
10464;BME280;5279;42.048;24.638;2023-04-15T03:43:55;96759.66;;;11.23;100.00
10464;BME280;5279;42.048;24.638;2023-04-15T03:46:23;96770.72;;;11.42;100.00
10464;BME280;5279;42.048;24.638;2023-04-15T03:48:51;96781.13;;;11.52;100.00
10464;BME280;5279;42.048;24.638;2023-04-15T03:51:18;96781.50;;;11.41;100.00
10464;BME280;5279;42.048;24.638;2023-04-15T03:53:46;96793.09;;;11.40;100.00
10464;BME280;5279;42.048;24.638;2023-04-15T03:56:14;96795.59;;;11.41;100.00
10464;BME280;5279;42.048;24.638;2023-04-15T03:58:42;96800.88;;;11.41;100.00
10464;BME280;5279;42.048;24.638;2023-04-15T04:01:11;96794.59;;;11.42;100.00
10464;BME280;5279;42.048;24.638;2023-04-15T04:03:38;96788.28;;;11.43;100.00
10464;BME280;5279;42.048;24.638;2023-04-15T04:06:06;96796.41;;;11.42;100.00
10464;BME280;5279;42.048;24.638;2023-04-15T04:08:33;96805.53;;;11.31;100.00
10464;BME280;5279;42.048;24.638;2023-04-15T04:11:01;96803.75;;;11.08;100.00
10464;BME280;5279;42.048;24.638;2023-04-15T04:13:28;96828.94;;;11.04;100.00
10464;BME280;5279;42.048;24.638;2023-04-15T04:15:55;96816.69;;;11.03;100.00
10464;BME280;5279;42.048;24.638;2023-04-15T04:18:24;96822.63;;;10.88;100.00
10464;BME280;5279;42.048;24.638;2023-04-15T04:20:52;96813.69;;;10.73;100.00
10464;BME280;5279;42.048;24.638;2023-04-15T04:23:20;96831.56;;;10.79;100.00
10464;BME280;5279;42.048;24.638;2023-04-15T04:25:47;96824.97;;;10.83;100.00
10464;BME280;5279;42.048;24.638;2023-04-15T04:28:15;96835.41;;;11.01;100.00
10464;BME280;5279;42.048;24.638;2023-04-15T04:30:43;96826.78;;;11.15;100.00
10464;BME280;5279;42.048;24.638;2023-04-15T04:33:10;96820.31;;;11.18;100.00
10464;BME280;5279;42.048;24.638;2023-04-15T04:35:39;96826.44;;;11.26;100.00
10464;BME280;5279;42.048;24.638;2023-04-15T04:38:07;96827.59;;;11.32;100.00
10464;BME280;5279;42.048;24.638;2023-04-15T04:40:34;96827.28;;;11.27;100.00
10464;BME280;5279;42.048;24.638;2023-04-15T04:43:02;96828.75;;;11.29;100.00
10464;BME280;5279;42.048;24.638;2023-04-15T04:45:29;96829.22;;;11.41;100.00
10464;BME280;5279;42.048;24.638;2023-04-15T04:47:56;96833.50;;;11.58;100.00
10464;BME280;5279;42.048;24.638;2023-04-15T04:50:24;96830.69;;;11.76;100.00
10464;BME280;5279;42.048;24.638;2023-04-15T04:52:53;96834.88;;;12.01;100.00
10464;BME280;5279;42.048;24.638;2023-04-15T04:55:21;96832.88;;;12.11;100.00
10464;BME280;5279;42.048;24.638;2023-04-15T04:57:48;96832.19;;;12.48;100.00
10464;BME280;5279;42.048;24.638;2023-04-15T05:00:16;96833.16;;;12.47;100.00
10464;BME280;5279;42.048;24.638;2023-04-15T05:02:44;96839.88;;;12.66;100.00
10464;BME280;5279;42.048;24.638;2023-04-15T05:05:12;96843.06;;;12.61;100.00
10464;BME280;5279;42.048;24.638;2023-04-15T05:07:39;96844.84;;;12.69;100.00
10464;BME280;5279;42.048;24.638;2023-04-15T05:10:09;96841.66;;;12.73;100.00
10464;BME280;5279;42.048;24.638;2023-04-15T05:12:37;96846.72;;;13.05;100.00
10464;BME280;5279;42.048;24.638;2023-04-15T05:15:06;96832.88;;;13.18;100.00
10464;BME280;5279;42.048;24.638;2023-04-15T05:17:34;96837.03;;;13.35;99.55
10464;BME280;5279;42.048;24.638;2023-04-15T05:20:01;96840.28;;;13.60;96.43
10464;BME280;5279;42.048;24.638;2023-04-15T05:22:29;96840.13;;;13.76;91.19
10464;BME280;5279;42.048;24.638;2023-04-15T05:24:56;96847.09;;;13.77;88.53
10464;BME280;5279;42.048;24.638;2023-04-15T05:27:25;96846.44;;;13.90;85.70
10464;BME280;5279;42.048;24.638;2023-04-15T05:29:52;96843.41;;;14.07;84.18
10464;BME280;5279;42.048;24.638;2023-04-15T05:32:21;96854.72;;;14.24;84.19
10464;BME280;5279;42.048;24.638;2023-04-15T05:34:48;96867.41;;;14.37;82.94
10464;BME280;5279;42.048;24.638;2023-04-15T05:37:14;96872.34;;;14.54;80.89
10464;BME280;5279;42.048;24.638;2023-04-15T05:39:41;96875.25;;;14.74;81.71
10464;BME280;5279;42.048;24.638;2023-04-15T05:42:08;96887.69;;;14.88;79.19
10464;BME280;5279;42.048;24.638;2023-04-15T05:44:37;96884.28;;;14.94;78.81
10464;BME280;5279;42.048;24.638;2023-04-15T05:47:04;96887.72;;;15.09;77.74
10464;BME280;5279;42.048;24.638;2023-04-15T05:49:32;96890.78;;;15.27;78.10
10464;BME280;5279;42.048;24.638;2023-04-15T05:51:59;96901.69;;;15.32;75.97
10464;BME280;5279;42.048;24.638;2023-04-15T05:54:26;96891.41;;;15.51;75.18
10464;BME280;5279;42.048;24.638;2023-04-15T05:56:53;96901.31;;;15.57;74.12
10464;BME280;5279;42.048;24.638;2023-04-15T05:59:20;96891.16;;;15.67;71.46
10464;BME280;5279;42.048;24.638;2023-04-15T06:01:49;96894.59;;;15.89;68.97
10464;BME280;5279;42.048;24.638;2023-04-15T06:04:16;96906.56;;;15.99;69.30
10464;BME280;5279;42.048;24.638;2023-04-15T06:06:43;96909.75;;;16.09;70.52
10464;BME280;5279;42.048;24.638;2023-04-15T06:09:10;96909.50;;;16.04;70.96
10464;BME280;5279;42.048;24.638;2023-04-15T06:11:37;96913.28;;;16.16;70.18
10464;BME280;5279;42.048;24.638;2023-04-15T06:14:05;96910.72;;;16.36;69.63
10464;BME280;5279;42.048;24.638;2023-04-15T06:16:33;96915.63;;;16.32;68.05
10464;BME280;5279;42.048;24.638;2023-04-15T06:19:02;96912.81;;;16.40;69.43
10464;BME280;5279;42.048;24.638;2023-04-15T06:21:29;96915.16;;;16.57;68.28
10464;BME280;5279;42.048;24.638;2023-04-15T06:23:57;96922.06;;;16.45;68.50
10464;BME280;5279;42.048;24.638;2023-04-15T06:26:25;96916.72;;;16.45;67.86
10464;BME280;5279;42.048;24.638;2023-04-15T06:28:52;96930.50;;;16.41;66.54
10464;BME280;5279;42.048;24.638;2023-04-15T06:31:19;96921.22;;;16.37;67.62
10464;BME280;5279;42.048;24.638;2023-04-15T06:33:47;96922.41;;;16.28;69.26
10464;BME280;5279;42.048;24.638;2023-04-15T06:36:16;96920.25;;;16.52;67.45
10464;BME280;5279;42.048;24.638;2023-04-15T06:38:43;96925.56;;;16.79;64.38
10464;BME280;5279;42.048;24.638;2023-04-15T06:41:10;96921.06;;;16.80;65.54
10464;BME280;5279;42.048;24.638;2023-04-15T06:43:37;96923.56;;;16.94;65.81
10464;BME280;5279;42.048;24.638;2023-04-15T06:46:05;96935.16;;;17.08;66.63
10464;BME280;5279;42.048;24.638;2023-04-15T06:48:33;96922.19;;;17.05;64.20
10464;BME280;5279;42.048;24.638;2023-04-15T06:50:59;96931.50;;;17.35;63.10
10464;BME280;5279;42.048;24.638;2023-04-15T06:53:28;96936.09;;;17.55;60.92
10464;BME280;5279;42.048;24.638;2023-04-15T06:55:55;96934.44;;;17.67;59.14
10464;BME280;5279;42.048;24.638;2023-04-15T06:58:21;96937.56;;;17.90;59.12
10464;BME280;5279;42.048;24.638;2023-04-15T07:00:48;96926.41;;;18.13;57.66
10464;BME280;5279;42.048;24.638;2023-04-15T07:03:16;96927.81;;;18.28;57.90
10464;BME280;5279;42.048;24.638;2023-04-15T07:05:43;96927.63;;;18.30;56.40
10464;BME280;5279;42.048;24.638;2023-04-15T07:08:10;96935.00;;;18.61;55.87
10464;BME280;5279;42.048;24.638;2023-04-15T07:10:38;96937.59;;;18.87;55.35
10464;BME280;5279;42.048;24.638;2023-04-15T07:13:05;96933.50;;;18.84;55.47
10464;BME280;5279;42.048;24.638;2023-04-15T07:15:33;96936.94;;;18.98;55.15
10464;BME280;5279;42.048;24.638;2023-04-15T07:18:00;96934.09;;;19.24;55.95
10464;BME280;5279;42.048;24.638;2023-04-15T07:20:27;96933.94;;;19.57;54.63
10464;BME280;5279;42.048;24.638;2023-04-15T07:22:53;96935.97;;;19.61;52.64
10464;BME280;5279;42.048;24.638;2023-04-15T07:25:20;96945.69;;;19.62;53.61
10464;BME280;5279;42.048;24.638;2023-04-15T07:27:49;96948.34;;;19.69;53.45
10464;BME280;5279;42.048;24.638;2023-04-15T07:30:15;96945.09;;;19.85;52.40
10464;BME280;5279;42.048;24.638;2023-04-15T07:32:42;96950.81;;;19.95;52.24
10464;BME280;5279;42.048;24.638;2023-04-15T07:35:10;96955.66;;;19.87;54.04
10464;BME280;5279;42.048;24.638;2023-04-15T07:37:37;96959.94;;;19.70;51.25
10464;BME280;5279;42.048;24.638;2023-04-15T07:40:05;96966.50;;;19.74;53.76
10464;BME280;5279;42.048;24.638;2023-04-15T07:42:33;96957.91;;;19.58;53.61
10464;BME280;5279;42.048;24.638;2023-04-15T07:45:02;96954.03;;;19.54;53.92
10464;BME280;5279;42.048;24.638;2023-04-15T07:47:29;96957.91;;;19.58;53.82
10464;BME280;5279;42.048;24.638;2023-04-15T07:49:56;96957.91;;;19.58;53.88
10464;BME280;5279;42.048;24.638;2023-04-15T07:52:23;96962.69;;;19.56;55.70
10464;BME280;5279;42.048;24.638;2023-04-15T07:54:50;96964.00;;;19.79;55.96
10464;BME280;5279;42.048;24.638;2023-04-15T07:57:17;96947.75;;;19.92;56.69
10464;BME280;5279;42.048;24.638;2023-04-15T07:59:44;96957.19;;;20.01;56.98
10464;BME280;5279;42.048;24.638;2023-04-15T08:02:12;96944.59;;;20.26;55.63
10464;BME280;5279;42.048;24.638;2023-04-15T08:04:39;96949.63;;;20.41;55.05
10464;BME280;5279;42.048;24.638;2023-04-15T08:07:07;96945.97;;;20.53;54.77
10464;BME280;5279;42.048;24.638;2023-04-15T08:09:36;96947.09;;;20.64;54.20
10464;BME280;5279;42.048;24.638;2023-04-15T08:12:04;96955.41;;;20.81;53.52
10464;BME280;5279;42.048;24.638;2023-04-15T08:14:32;96948.16;;;20.81;53.24
10464;BME280;5279;42.048;24.638;2023-04-15T08:16:59;96941.19;;;20.73;53.89
10464;BME280;5279;42.048;24.638;2023-04-15T08:19:28;96949.25;;;20.92;53.32
10464;BME280;5279;42.048;24.638;2023-04-15T08:21:55;96944.50;;;21.12;52.71
10464;BME280;5279;42.048;24.638;2023-04-15T08:24:24;96948.63;;;21.44;51.76
10464;BME280;5279;42.048;24.638;2023-04-15T08:26:51;96951.19;;;21.39;50.69
10464;BME280;5279;42.048;24.638;2023-04-15T08:29:18;96948.78;;;21.31;50.32
10464;BME280;5279;42.048;24.638;2023-04-15T08:31:45;96940.41;;;21.39;51.16
10464;BME280;5279;42.048;24.638;2023-04-15T08:34:12;96932.31;;;21.39;50.69
10464;BME280;5279;42.048;24.638;2023-04-15T08:36:41;96949.59;;;21.61;49.54
10464;BME280;5279;42.048;24.638;2023-04-15T08:39:08;96941.63;;;21.55;50.88
10464;BME280;5279;42.048;24.638;2023-04-15T08:41:39;96950.59;;;21.78;50.00
10464;BME280;5279;42.048;24.638;2023-04-15T08:44:08;96945.38;;;21.95;49.71
10464;BME280;5279;42.048;24.638;2023-04-15T08:46:35;96939.09;;;21.71;50.05
10464;BME280;5279;42.048;24.638;2023-04-15T08:49:04;96952.78;;;22.00;47.05
10464;BME280;5279;42.048;24.638;2023-04-15T08:51:41;96945.75;;;22.10;47.83
10464;BME280;5279;42.048;24.638;2023-04-15T08:54:08;96952.13;;;22.16;47.55
10464;BME280;5279;42.048;24.638;2023-04-15T08:56:37;96950.09;;;22.11;45.20
10464;BME280;5279;42.048;24.638;2023-04-15T08:59:06;96943.56;;;22.30;45.31
10464;BME280;5279;42.048;24.638;2023-04-15T09:01:33;96955.63;;;22.51;43.89
10464;BME280;5279;42.048;24.638;2023-04-15T09:04:02;96948.25;;;22.81;43.86
10464;BME280;5279;42.048;24.638;2023-04-15T09:06:31;96942.50;;;22.66;44.47
10464;BME280;5279;42.048;24.638;2023-04-15T09:08:59;96939.19;;;22.88;43.48
10464;BME280;5279;42.048;24.638;2023-04-15T09:11:26;96946.72;;;22.85;41.74
10464;BME280;5279;42.048;24.638;2023-04-15T09:13:53;96949.63;;;22.96;42.34
10464;BME280;5279;42.048;24.638;2023-04-15T09:16:20;96954.91;;;22.91;41.67
10464;BME280;5279;42.048;24.638;2023-04-15T09:18:46;96942.91;;;23.10;41.78
10464;BME280;5279;42.048;24.638;2023-04-15T09:21:15;96939.97;;;23.00;41.87
10464;BME280;5279;42.048;24.638;2023-04-15T09:23:54;96937.19;;;23.23;41.28
10464;BME280;5279;42.048;24.638;2023-04-15T09:26:31;96931.63;;;23.69;39.81
10464;BME280;5279;42.048;24.638;2023-04-15T09:29:03;96928.06;;;24.14;38.21
10464;BME280;5279;42.048;24.638;2023-04-15T09:31:31;96921.50;;;25.03;36.73
10464;BME280;5279;42.048;24.638;2023-04-15T09:33:58;96921.78;;;26.03;33.44
10464;BME280;5279;42.048;24.638;2023-04-15T09:36:25;96915.97;;;26.22;32.01
10464;BME280;5279;42.048;24.638;2023-04-15T09:38:55;96921.41;;;26.63;32.05
10464;BME280;5279;42.048;24.638;2023-04-15T09:41:23;96930.84;;;27.50;31.73
10464;BME280;5279;42.048;24.638;2023-04-15T09:43:51;96932.56;;;28.72;28.75
10464;BME280;5279;42.048;24.638;2023-04-15T09:46:18;96927.19;;;29.36;27.88
10464;BME280;5279;42.048;24.638;2023-04-15T09:48:46;96911.38;;;29.33;26.84
10464;BME280;5279;42.048;24.638;2023-04-15T09:51:13;96910.25;;;29.88;27.16
10464;BME280;5279;42.048;24.638;2023-04-15T09:53:40;96915.56;;;30.37;27.94
10464;BME280;5279;42.048;24.638;2023-04-15T09:56:07;96921.88;;;30.95;27.04
10464;BME280;5279;42.048;24.638;2023-04-15T09:58:36;96911.94;;;30.18;28.23
10464;BME280;5279;42.048;24.638;2023-04-15T10:01:07;96912.94;;;30.27;28.10
10464;BME280;5279;42.048;24.638;2023-04-15T10:03:36;96915.66;;;28.75;29.13
10464;BME280;5279;42.048;24.638;2023-04-15T10:06:04;96902.25;;;28.89;30.12
10464;BME280;5279;42.048;24.638;2023-04-15T10:08:35;96897.66;;;28.74;30.03
10464;BME280;5279;42.048;24.638;2023-04-15T10:11:05;96905.31;;;28.01;29.35
10464;BME280;5279;42.048;24.638;2023-04-15T10:13:34;96914.03;;;28.44;29.13
10464;BME280;5279;42.048;24.638;2023-04-15T10:16:05;96906.81;;;29.03;27.76
10464;BME280;5279;42.048;24.638;2023-04-15T10:18:37;96902.31;;;27.93;28.89
10464;BME280;5279;42.048;24.638;2023-04-15T10:21:07;96896.53;;;26.35;31.77
10464;BME280;5279;42.048;24.638;2023-04-15T10:23:35;96891.72;;;26.52;32.60
10464;BME280;5279;42.048;24.638;2023-04-15T10:26:03;96889.00;;;28.16;31.13
10464;BME280;5279;42.048;24.638;2023-04-15T10:28:30;96875.59;;;29.35;29.81
10464;BME280;5279;42.048;24.638;2023-04-15T10:30:58;96883.03;;;29.14;29.07
10464;BME280;5279;42.048;24.638;2023-04-15T10:33:26;96882.22;;;29.13;29.13
10464;BME280;5279;42.048;24.638;2023-04-15T10:35:55;96874.03;;;30.06;28.53
10464;BME280;5279;42.048;24.638;2023-04-15T10:38:30;96874.84;;;30.41;26.82
10464;BME280;5279;42.048;24.638;2023-04-15T10:41:11;96864.97;;;30.92;26.29
10464;BME280;5279;42.048;24.638;2023-04-15T10:43:39;96865.25;;;31.75;26.01
10464;BME280;5279;42.048;24.638;2023-04-15T10:46:06;96860.50;;;31.25;26.41
10464;BME280;5279;42.048;24.638;2023-04-15T10:48:33;96866.06;;;31.57;25.92
10464;BME280;5279;42.048;24.638;2023-04-15T10:51:01;96858.50;;;32.05;25.00
10464;BME280;5279;42.048;24.638;2023-04-15T10:53:29;96852.16;;;32.56;24.04
10464;BME280;5279;42.048;24.638;2023-04-15T10:55:57;96859.06;;;33.08;23.91
10464;BME280;5279;42.048;24.638;2023-04-15T10:58:24;96859.25;;;32.84;23.98
10464;BME280;5279;42.048;24.638;2023-04-15T11:00:52;96855.31;;;32.44;22.28
10464;BME280;5279;42.048;24.638;2023-04-15T11:03:36;96849.13;;;32.25;23.60
10464;BME280;5279;42.048;24.638;2023-04-15T11:06:05;96858.09;;;31.61;23.86
10464;BME280;5279;42.048;24.638;2023-04-15T11:08:54;96864.50;;;31.88;23.44
10464;BME280;5279;42.048;24.638;2023-04-15T11:11:29;96849.06;;;32.43;22.48
10464;BME280;5279;42.048;24.638;2023-04-15T11:14:16;96843.63;;;32.98;22.52
10464;BME280;5279;42.048;24.638;2023-04-15T11:16:42;96840.66;;;33.22;21.82
10464;BME280;5279;42.048;24.638;2023-04-15T11:19:10;96844.31;;;33.53;21.67
10464;BME280;5279;42.048;24.638;2023-04-15T11:21:40;96836.06;;;33.17;21.71
10464;BME280;5279;42.048;24.638;2023-04-15T11:24:07;96844.22;;;33.94;21.88
10464;BME280;5279;42.048;24.638;2023-04-15T11:26:34;96834.13;;;34.25;21.58
10464;BME280;5279;42.048;24.638;2023-04-15T11:29:01;96839.75;;;34.82;21.15
10464;BME280;5279;42.048;24.638;2023-04-15T11:31:28;96839.72;;;35.21;20.54
10464;BME280;5279;42.048;24.638;2023-04-15T11:33:56;96825.41;;;35.02;22.39
10464;BME280;5279;42.048;24.638;2023-04-15T11:36:24;96822.22;;;33.94;21.88
10464;BME280;5279;42.048;24.638;2023-04-15T11:38:56;96824.34;;;33.75;22.62
10464;BME280;5279;42.048;24.638;2023-04-15T11:41:23;96818.91;;;33.12;23.16
10464;BME280;5279;42.048;24.638;2023-04-15T11:43:51;96824.34;;;31.23;24.65
10464;BME280;5279;42.048;24.638;2023-04-15T11:46:19;96827.66;;;30.54;26.08
10464;BME280;5279;42.048;24.638;2023-04-15T11:48:47;96807.75;;;30.24;26.17
10464;BME280;5279;42.048;24.638;2023-04-15T11:51:17;96812.06;;;30.78;26.30
10464;BME280;5279;42.048;24.638;2023-04-15T11:53:50;96805.72;;;31.62;26.05
10464;BME280;5279;42.048;24.638;2023-04-15T11:56:21;96811.19;;;32.13;25.41
10464;BME280;5279;42.048;24.638;2023-04-15T11:58:51;96798.78;;;32.89;25.22
10464;BME280;5279;42.048;24.638;2023-04-15T12:01:18;96784.66;;;32.82;23.80
10464;BME280;5279;42.048;24.638;2023-04-15T12:03:47;96811.56;;;31.18;25.04
10464;BME280;5279;42.048;24.638;2023-04-15T12:06:16;96796.03;;;29.90;26.78
10464;BME280;5279;42.048;24.638;2023-04-15T12:08:57;96799.00;;;28.47;30.42
10464;BME280;5279;42.048;24.638;2023-04-15T12:11:31;96800.97;;;28.31;31.10
10464;BME280;5279;42.048;24.638;2023-04-15T12:14:03;96795.72;;;28.50;31.15
10464;BME280;5279;42.048;24.638;2023-04-15T12:16:33;96799.13;;;29.40;29.46
10464;BME280;5279;42.048;24.638;2023-04-15T12:19:05;96797.31;;;29.64;28.75
10464;BME280;5279;42.048;24.638;2023-04-15T12:21:34;96794.31;;;29.21;29.56
10464;BME280;5279;42.048;24.638;2023-04-15T12:24:04;96790.25;;;28.60;30.98
10464;BME280;5279;42.048;24.638;2023-04-15T12:26:35;96793.31;;;28.48;30.58
10464;BME280;5279;42.048;24.638;2023-04-15T12:29:04;96792.53;;;28.33;31.24
10464;BME280;5279;42.048;24.638;2023-04-15T12:31:32;96797.47;;;27.85;32.26
10464;BME280;5279;42.048;24.638;2023-04-15T12:34:00;96789.22;;;27.09;33.48
10464;BME280;5279;42.048;24.638;2023-04-15T12:36:28;96800.16;;;26.52;34.41
10464;BME280;5279;42.048;24.638;2023-04-15T12:39:01;96794.91;;;26.31;34.77
10464;BME280;5279;42.048;24.638;2023-04-15T12:41:29;96801.19;;;25.36;36.62
10464;BME280;5279;42.048;24.638;2023-04-15T12:43:58;96808.88;;;24.90;37.35
10464;BME280;5279;42.048;24.638;2023-04-15T12:46:26;96806.91;;;24.42;38.54
10464;BME280;5279;42.048;24.638;2023-04-15T12:48:53;96804.16;;;24.37;39.54
10464;BME280;5279;42.048;24.638;2023-04-15T12:51:20;96806.94;;;24.26;39.60
10464;BME280;5279;42.048;24.638;2023-04-15T12:53:48;96804.03;;;24.11;40.04
10464;BME280;5279;42.048;24.638;2023-04-15T12:56:16;96805.88;;;23.88;40.37
10464;BME280;5279;42.048;24.638;2023-04-15T12:58:44;96797.34;;;23.63;40.89
10464;BME280;5279;42.048;24.638;2023-04-15T13:01:13;96811.13;;;23.45;42.10